createdAt,value
2017-11-06T00:01:45.092Z,20.97
2017-11-06T00:04:12.641Z,14.30
2017-11-06T00:06:40.229Z,13.20
2017-11-06T00:09:08.535Z,11.70
2017-11-06T00:11:36.118Z,10.60
2017-11-06T00:14:03.654Z,12.57
2017-11-06T00:16:31.238Z,15.88
2017-11-06T00:18:58.787Z,11.07
2017-11-06T00:21:26.388Z,16.20
2017-11-06T00:23:53.927Z,13.47
2017-11-06T00:26:21.476Z,15.40
2017-11-06T00:28:49.057Z,14.93
2017-11-06T00:31:16.656Z,15.10
2017-11-06T00:33:44.969Z,14.00
2017-11-06T00:36:12.511Z,13.02
2017-11-06T00:38:40.094Z,15.50
2017-11-06T00:41:07.642Z,13.57
2017-11-06T00:43:35.225Z,13.98
2017-11-06T00:46:02.773Z,14.97
2017-11-06T00:48:31.129Z,14.55
2017-11-06T00:50:58.678Z,17.33
2017-11-06T00:53:26.270Z,15.95
2017-11-06T00:55:53.812Z,17.87
2017-11-06T00:58:21.396Z,17.67
2017-11-06T01:00:48.941Z,15.80
2017-11-06T01:03:16.525Z,14.90
2017-11-06T01:05:44.076Z,14.70
2017-11-06T01:08:11.661Z,17.45
2017-11-06T01:10:39.210Z,17.40
2017-11-06T01:13:06.802Z,16.12
2017-11-06T01:15:35.119Z,19.67
2017-11-06T01:18:02.693Z,15.00
2017-11-06T01:20:30.233Z,14.30
2017-11-06T01:22:57.827Z,15.48
2017-11-06T01:25:25.377Z,16.87
2017-11-06T01:27:52.956Z,18.48
2017-11-06T01:30:20.501Z,14.70
2017-11-06T01:32:48.097Z,17.10
2017-11-06T01:35:16.409Z,14.45
2017-11-06T01:37:43.996Z,16.37
2017-11-06T01:40:11.587Z,15.40
2017-11-06T01:42:39.949Z,18.37
2017-11-06T01:45:07.502Z,17.50
2017-11-06T01:47:35.094Z,14.95
2017-11-06T01:50:03.409Z,21.58
2017-11-06T01:52:30.993Z,16.87
2017-11-06T01:54:58.541Z,19.75
2017-11-06T01:57:26.141Z,17.95
2017-11-06T01:59:53.694Z,14.50
2017-11-06T02:02:21.315Z,18.05
2017-11-06T02:04:48.858Z,16.87
2017-11-06T02:07:16.403Z,17.50
2017-11-06T02:09:43.996Z,21.75
2017-11-06T02:12:11.550Z,17.12
2017-11-06T02:14:39.138Z,18.87
2017-11-06T02:17:06.722Z,19.62
2017-11-06T02:19:34.279Z,18.42
2017-11-06T02:22:01.868Z,18.13
2017-11-06T02:24:29.418Z,23.92
2017-11-06T02:26:57.775Z,16.25
2017-11-06T02:29:26.143Z,24.30
2017-11-06T02:31:53.696Z,18.05
2017-11-06T02:34:21.286Z,15.90
2017-11-06T02:36:49.603Z,15.13
2017-11-06T02:39:17.206Z,17.70
2017-11-06T02:41:44.757Z,16.75
2017-11-06T02:44:12.344Z,14.75
2017-11-06T02:46:40.657Z,15.68
2017-11-06T02:49:08.249Z,16.37
2017-11-06T02:51:35.794Z,14.87
2017-11-06T02:54:03.395Z,16.92
2017-11-06T02:56:30.946Z,17.27
2017-11-06T02:58:58.528Z,18.40
2017-11-06T03:01:26.840Z,21.42
2017-11-06T03:03:54.425Z,19.62
2017-11-06T03:06:21.976Z,20.35
2017-11-06T03:08:49.567Z,14.87
2017-11-06T03:11:17.109Z,15.67
2017-11-06T03:13:44.698Z,15.07
2017-11-06T03:16:13.017Z,16.80
2017-11-06T03:18:40.615Z,17.12
2017-11-06T03:21:08.165Z,17.25
2017-11-06T03:23:35.743Z,13.38
2017-11-06T03:26:03.297Z,17.00
2017-11-06T03:28:30.893Z,17.40
2017-11-06T03:30:59.211Z,16.70
2017-11-06T03:33:26.754Z,18.40
2017-11-06T03:35:54.333Z,16.75
2017-11-06T03:38:21.925Z,14.45
2017-11-06T03:40:49.469Z,12.65
2017-11-06T03:43:17.057Z,20.30
2017-11-06T03:45:45.379Z,14.48
2017-11-06T03:48:12.954Z,14.23
2017-11-06T03:50:40.489Z,10.25
2017-11-06T03:53:08.070Z,10.73
2017-11-06T03:55:35.613Z,11.98
2017-11-06T03:58:03.197Z,7.47
2017-11-06T04:00:30.741Z,9.95
2017-11-06T04:02:58.330Z,9.32
2017-11-06T04:05:25.885Z,10.13
2017-11-06T04:07:53.432Z,8.90
2017-11-06T04:10:21.010Z,9.60
2017-11-06T04:12:48.548Z,10.43
2017-11-06T04:15:16.126Z,10.77
2017-11-06T04:17:43.714Z,10.23
2017-11-06T04:20:12.025Z,9.25
2017-11-06T04:22:39.574Z,8.55
2017-11-06T04:25:07.158Z,10.85
2017-11-06T04:27:34.690Z,9.68
2017-11-06T04:30:02.283Z,10.90
2017-11-06T04:32:29.825Z,12.23
2017-11-06T04:34:57.400Z,9.40
2017-11-06T04:37:24.945Z,11.50
2017-11-06T04:39:52.526Z,10.73
2017-11-06T04:42:20.071Z,16.58
2017-11-06T04:44:47.652Z,10.82
2017-11-06T04:47:15.192Z,12.35
2017-11-06T04:49:42.775Z,9.98
2017-11-06T04:52:10.317Z,12.68
2017-11-06T04:54:37.892Z,12.32
2017-11-06T04:57:05.439Z,13.52
2017-11-06T04:59:33.034Z,13.32
2017-11-06T05:02:00.588Z,17.87
2017-11-06T05:04:28.184Z,11.88
2017-11-06T05:06:55.734Z,11.70
2017-11-06T05:09:24.081Z,16.00
2017-11-06T05:11:51.638Z,11.18
2017-11-06T05:14:19.230Z,11.90
2017-11-06T05:16:47.541Z,13.48
2017-11-06T05:19:15.126Z,12.65
2017-11-06T05:21:42.674Z,10.07
2017-11-06T05:24:10.256Z,11.30
2017-11-06T05:26:37.795Z,13.73
2017-11-06T05:29:05.489Z,13.35
2017-11-06T05:31:33.028Z,10.68
2017-11-06T05:34:00.572Z,10.23
2017-11-06T05:36:28.148Z,11.25
2017-11-06T05:38:55.691Z,13.65
2017-11-06T05:41:23.269Z,14.30
2017-11-06T05:43:50.813Z,11.70
2017-11-06T05:46:18.587Z,12.73
2017-11-06T05:48:46.131Z,13.55
2017-11-06T05:51:13.720Z,13.55
2017-11-06T05:53:41.262Z,15.07
2017-11-06T05:56:08.840Z,13.95
2017-11-06T05:58:36.382Z,16.83
2017-11-06T06:01:03.972Z,14.10
2017-11-06T06:03:31.524Z,19.98
2017-11-06T06:05:59.171Z,16.27
2017-11-06T06:08:26.717Z,23.25
2017-11-06T06:10:54.294Z,22.48
2017-11-06T06:13:21.836Z,21.73
2017-11-06T06:15:49.416Z,27.45
2017-11-06T06:18:16.956Z,27.45
2017-11-06T06:20:44.538Z,26.92
2017-11-06T06:23:12.095Z,24.85
2017-11-06T06:25:39.686Z,26.52
2017-11-06T06:28:08.000Z,25.67
2017-11-06T06:30:35.582Z,26.40
2017-11-06T06:33:03.127Z,23.80
2017-11-06T06:35:30.707Z,29.70
2017-11-06T06:37:58.250Z,32.97
2017-11-06T06:40:25.828Z,35.75
2017-11-06T06:42:53.373Z,30.70
2017-11-06T06:45:20.961Z,28.60
2017-11-06T06:47:48.509Z,31.30
2017-11-06T06:50:16.132Z,25.00
2017-11-06T06:52:43.679Z,43.78
2017-11-06T06:55:11.267Z,34.03
2017-11-06T06:57:38.814Z,25.88
2017-11-06T07:00:06.382Z,26.30
2017-11-06T07:02:33.965Z,33.58
2017-11-06T07:05:01.505Z,37.53
2017-11-06T07:07:29.089Z,36.17
2017-11-06T07:09:58.191Z,32.22
2017-11-06T07:12:25.773Z,31.08
2017-11-06T07:14:54.084Z,32.65
2017-11-06T07:17:21.672Z,27.10
2017-11-06T07:19:49.262Z,26.62
2017-11-06T07:22:16.809Z,27.65
2017-11-06T07:24:44.389Z,32.55
2017-11-06T07:27:11.934Z,32.92
2017-11-06T07:29:39.541Z,27.08
2017-11-06T07:32:07.092Z,32.75
2017-11-06T07:34:34.642Z,29.10
2017-11-06T07:37:02.994Z,39.17
2017-11-06T07:39:30.595Z,31.60
2017-11-06T07:41:58.137Z,29.12
2017-11-06T07:44:26.448Z,27.33
2017-11-06T07:46:54.029Z,30.25
2017-11-06T07:49:21.609Z,32.05
2017-11-06T07:51:49.152Z,26.50
2017-11-06T07:54:16.732Z,30.88
2017-11-06T07:56:44.316Z,28.30
2017-11-06T07:59:12.634Z,32.92
2017-11-06T08:01:40.225Z,31.70
2017-11-06T08:04:07.773Z,34.03
2017-11-06T08:06:35.317Z,36.40
2017-11-06T08:09:02.905Z,37.70
2017-11-06T08:11:30.452Z,28.58
2017-11-06T08:13:58.035Z,34.75
2017-11-06T08:16:25.585Z,32.53
2017-11-06T08:18:53.185Z,29.75
2017-11-06T08:21:20.752Z,29.65
2017-11-06T08:23:48.359Z,34.30
2017-11-06T08:26:15.910Z,42.88
2017-11-06T08:28:43.467Z,37.75
2017-11-06T08:31:11.050Z,33.63
2017-11-06T08:33:38.680Z,28.48
2017-11-06T08:36:06.228Z,30.35
2017-11-06T08:38:33.826Z,28.67
2017-11-06T08:41:01.374Z,31.98
2017-11-06T08:43:28.925Z,31.25
2017-11-06T08:45:56.513Z,32.33
2017-11-06T08:48:24.065Z,28.23
2017-11-06T08:50:51.665Z,31.00
2017-11-06T08:53:19.976Z,28.95
2017-11-06T08:55:47.525Z,30.48
2017-11-06T08:58:15.115Z,37.47
2017-11-06T09:00:42.658Z,31.17
2017-11-06T09:03:10.216Z,28.40
2017-11-06T09:05:37.788Z,34.63
2017-11-06T09:08:05.341Z,28.42
2017-11-06T09:10:32.925Z,28.12
2017-11-06T09:13:00.469Z,29.15
2017-11-06T09:15:28.054Z,26.77
2017-11-06T09:17:55.595Z,26.00
2017-11-06T09:20:23.183Z,27.45
2017-11-06T09:22:51.532Z,30.88
2017-11-06T09:25:19.081Z,29.05
2017-11-06T09:27:46.676Z,37.33
2017-11-06T09:30:15.035Z,29.33
2017-11-06T09:32:42.617Z,28.52
2017-11-06T09:35:10.164Z,30.20
2017-11-06T09:37:37.900Z,26.27
2017-11-06T09:40:05.481Z,32.33
2017-11-06T09:42:33.061Z,23.95
2017-11-06T09:45:00.646Z,27.30
2017-11-06T09:47:28.222Z,30.40
2017-11-06T09:49:55.764Z,30.20
2017-11-06T09:52:23.343Z,29.15
2017-11-06T09:54:50.942Z,33.40
2017-11-06T09:57:18.497Z,29.35
2017-11-06T09:59:46.048Z,27.17
2017-11-06T10:02:13.631Z,28.25
2017-11-06T10:04:41.181Z,27.52
2017-11-06T10:07:08.757Z,28.65
2017-11-06T10:09:37.072Z,26.33
2017-11-06T10:12:04.659Z,31.52
2017-11-06T10:14:32.250Z,24.58
2017-11-06T10:16:59.826Z,33.45
2017-11-06T10:19:28.141Z,30.97
2017-11-06T10:21:55.724Z,27.20
2017-11-06T10:24:23.274Z,29.48
2017-11-06T10:26:50.862Z,28.45
2017-11-06T10:29:18.404Z,37.53
2017-11-06T10:31:45.980Z,32.45
2017-11-06T10:34:15.067Z,27.27
2017-11-06T10:36:42.661Z,34.57
2017-11-06T10:39:10.972Z,28.92
2017-11-06T10:41:38.522Z,27.02
2017-11-06T10:44:06.108Z,33.78
2017-11-06T10:46:33.767Z,34.75
2017-11-06T10:49:01.313Z,26.77
2017-11-06T10:51:28.889Z,27.40
2017-11-06T10:53:56.435Z,26.60
2017-11-06T10:56:24.024Z,27.27
2017-11-06T10:58:51.569Z,28.52
2017-11-06T11:01:19.125Z,26.58
2017-11-06T11:03:46.708Z,23.37
2017-11-06T11:06:14.255Z,31.62
2017-11-06T11:08:41.850Z,28.33
2017-11-06T11:11:09.402Z,33.75
2017-11-06T11:13:36.949Z,25.52
2017-11-06T11:16:04.530Z,24.17
2017-11-06T11:18:32.850Z,25.10
2017-11-06T11:21:00.442Z,27.23
2017-11-06T11:23:28.018Z,28.87
2017-11-06T11:25:56.367Z,28.58
2017-11-06T11:28:23.940Z,28.08
2017-11-06T11:30:51.488Z,25.83
2017-11-06T11:33:19.077Z,30.42
2017-11-06T11:35:46.617Z,29.83
2017-11-06T11:38:14.214Z,22.83
2017-11-06T11:40:42.534Z,27.27
2017-11-06T11:43:10.082Z,28.40
2017-11-06T11:45:37.664Z,29.12
2017-11-06T11:48:05.209Z,26.12
2017-11-06T11:50:32.801Z,27.83
2017-11-06T11:53:00.349Z,22.45
2017-11-06T11:55:27.944Z,21.27
2017-11-06T11:57:56.258Z,20.40
2017-11-06T12:00:23.829Z,33.30
2017-11-06T12:02:51.407Z,22.77
2017-11-06T12:05:18.960Z,19.97
2017-11-06T12:07:46.543Z,18.62
2017-11-06T12:10:14.089Z,19.15
2017-11-06T12:12:41.694Z,21.62
2017-11-06T12:15:10.018Z,21.02
2017-11-06T12:17:37.564Z,20.48
2017-11-06T12:20:05.149Z,23.25
2017-11-06T12:22:32.691Z,20.07
2017-11-06T12:25:00.282Z,19.10
2017-11-06T12:27:27.828Z,21.50
2017-11-06T12:29:55.430Z,18.40
2017-11-06T12:32:23.741Z,18.98
2017-11-06T12:34:51.287Z,26.73
2017-11-06T12:37:18.865Z,19.62
2017-11-06T12:39:46.406Z,20.15
2017-11-06T12:42:13.992Z,20.93
2017-11-06T12:44:41.573Z,18.80
2017-11-06T12:47:09.165Z,22.95
2017-11-06T12:49:37.477Z,18.02
2017-11-06T12:52:05.062Z,14.73
2017-11-06T12:54:32.646Z,16.60
2017-11-06T12:57:00.192Z,24.37
2017-11-06T12:59:27.786Z,21.05
2017-11-06T13:01:56.102Z,14.97
2017-11-06T13:04:23.645Z,18.73
2017-11-06T13:06:51.225Z,17.65
2017-11-06T13:09:18.772Z,14.90
2017-11-06T13:11:46.357Z,18.77
2017-11-06T13:14:13.906Z,16.00
2017-11-06T13:16:41.488Z,15.13
2017-11-06T13:19:09.127Z,16.17
2017-11-06T13:21:36.673Z,13.32
2017-11-06T13:24:04.249Z,14.65
2017-11-06T13:26:31.805Z,15.18
2017-11-06T13:28:59.397Z,16.20
2017-11-06T13:31:26.941Z,13.10
2017-11-06T13:33:54.490Z,14.53
2017-11-06T13:36:22.080Z,18.33
2017-11-06T13:38:49.657Z,13.73
2017-11-06T13:41:17.998Z,15.32
2017-11-06T13:43:45.543Z,13.60
2017-11-06T13:46:13.110Z,18.10
2017-11-06T13:48:40.690Z,23.02
2017-11-06T13:51:08.237Z,15.50
2017-11-06T13:53:36.586Z,17.52
2017-11-06T13:56:04.165Z,13.13
2017-11-06T13:58:31.720Z,15.70
2017-11-06T14:00:59.297Z,15.43
2017-11-06T14:03:26.860Z,11.87
2017-11-06T14:05:54.445Z,14.38
2017-11-06T14:08:22.743Z,10.43
2017-11-06T14:10:50.328Z,16.65
2017-11-06T14:13:17.882Z,12.90
2017-11-06T14:15:45.478Z,10.27
2017-11-06T14:18:13.025Z,14.18
2017-11-06T14:20:40.577Z,14.60
2017-11-06T14:23:08.162Z,11.18
2017-11-06T14:25:35.704Z,13.43
2017-11-06T14:28:03.278Z,9.60
2017-11-06T14:30:30.825Z,12.07
2017-11-06T14:32:58.479Z,12.48
2017-11-06T14:35:26.053Z,17.62
2017-11-06T14:37:53.589Z,12.00
2017-11-06T14:40:21.167Z,8.50
2017-11-06T14:42:48.704Z,9.55
2017-11-06T14:45:16.290Z,12.48
2017-11-06T14:47:43.836Z,12.63
2017-11-06T14:50:11.421Z,12.32
2017-11-06T14:52:38.961Z,12.80
2017-11-06T14:55:06.501Z,9.43
2017-11-06T14:57:34.085Z,11.98
2017-11-06T15:00:01.660Z,13.47
2017-11-06T15:02:29.201Z,14.32
2017-11-06T15:04:56.790Z,13.55
2017-11-06T15:07:24.374Z,11.95
2017-11-06T15:09:52.715Z,11.75
2017-11-06T15:12:20.297Z,10.85
2017-11-06T15:14:47.839Z,11.18
2017-11-06T15:17:15.407Z,12.65
2017-11-06T15:19:42.989Z,12.20
2017-11-06T15:22:11.307Z,14.75
2017-11-06T15:24:38.891Z,11.23
2017-11-06T15:27:06.449Z,11.27
2017-11-06T15:29:34.029Z,15.27
2017-11-06T15:32:01.577Z,10.95
2017-11-06T15:34:30.661Z,10.73
2017-11-06T15:36:58.198Z,11.60
2017-11-06T15:39:25.780Z,10.40
2017-11-06T15:41:53.322Z,14.98
2017-11-06T15:44:20.901Z,11.32
2017-11-06T15:46:48.482Z,10.68
2017-11-06T15:49:16.021Z,9.32
2017-11-06T15:51:43.584Z,12.35
2017-11-06T15:54:11.161Z,14.25
2017-11-06T15:56:38.736Z,12.23
2017-11-06T15:59:07.042Z,17.75
2017-11-06T16:01:34.628Z,12.65
2017-11-06T16:04:02.169Z,19.92
2017-11-06T16:06:29.716Z,19.00
2017-11-06T16:08:57.298Z,12.82
2017-11-06T16:11:24.884Z,12.30
2017-11-06T16:13:52.429Z,13.15
2017-11-06T16:16:20.017Z,13.85
2017-11-06T16:18:47.562Z,15.80
2017-11-06T16:21:15.102Z,22.42
2017-11-06T16:23:42.677Z,11.12
2017-11-06T16:26:10.222Z,16.33
2017-11-06T16:28:37.813Z,15.18
2017-11-06T16:31:05.361Z,14.85
2017-11-06T16:33:32.933Z,14.93
2017-11-06T16:36:00.516Z,13.83
2017-11-06T16:38:28.828Z,12.93
2017-11-06T16:40:56.404Z,15.47
2017-11-06T16:43:23.952Z,18.40
2017-11-06T16:45:51.536Z,15.52
2017-11-06T16:48:19.096Z,19.35
2017-11-06T16:50:46.673Z,19.27
2017-11-06T16:53:14.215Z,14.38
2017-11-06T16:55:41.773Z,23.20
2017-11-06T16:58:09.350Z,15.60
2017-11-06T17:00:36.897Z,14.70
2017-11-06T17:03:04.491Z,15.85
2017-11-06T17:05:32.800Z,18.00
2017-11-06T17:08:00.342Z,16.00
2017-11-06T17:10:27.926Z,15.40
2017-11-06T17:12:55.464Z,16.35
2017-11-06T17:15:23.812Z,16.57
2017-11-06T17:17:51.350Z,19.58
2017-11-06T17:20:18.933Z,16.00
2017-11-06T17:22:47.286Z,29.48
2017-11-06T17:25:14.889Z,15.23
2017-11-06T17:27:43.193Z,19.92
2017-11-06T17:30:10.735Z,20.30
2017-11-06T17:32:38.328Z,15.13
2017-11-06T17:35:05.882Z,25.03
2017-11-06T17:37:33.428Z,34.85
2017-11-06T17:40:01.111Z,21.93
2017-11-06T17:42:28.663Z,21.27
2017-11-06T17:44:56.249Z,18.83
2017-11-06T17:47:23.796Z,18.30
2017-11-06T17:49:51.343Z,21.02
2017-11-06T17:52:18.931Z,17.05
2017-11-06T17:54:46.477Z,14.82
2017-11-06T17:57:14.074Z,22.75
2017-11-06T17:59:41.617Z,14.23
2017-11-06T18:02:09.161Z,20.50
2017-11-06T18:04:36.745Z,21.83
2017-11-06T18:07:04.327Z,17.65
2017-11-06T18:09:31.927Z,15.77
2017-11-06T18:11:59.488Z,15.88
2017-11-06T18:14:27.090Z,17.60
2017-11-06T18:16:54.639Z,16.02
2017-11-06T18:19:22.183Z,17.40
2017-11-06T18:21:49.765Z,15.88
2017-11-06T18:24:17.314Z,18.50
2017-11-06T18:26:44.859Z,18.90
2017-11-06T18:29:47.546Z,19.35
2017-11-06T18:32:17.168Z,20.48
2017-11-06T18:34:45.515Z,24.00
2017-11-06T18:37:13.070Z,19.30
2017-11-06T18:39:40.655Z,19.40
2017-11-06T18:42:08.206Z,20.98
2017-11-06T18:44:35.794Z,20.60
2017-11-06T18:47:03.342Z,18.48
2017-11-06T18:49:31.709Z,23.62
2017-11-06T18:51:59.257Z,20.30
2017-11-06T18:54:26.799Z,27.95
2017-11-06T18:56:54.376Z,19.05
2017-11-06T18:59:21.936Z,19.35
2017-11-06T19:01:49.524Z,17.27
2017-11-06T19:04:17.068Z,22.35
2017-11-06T19:06:44.618Z,22.87
2017-11-06T19:09:12.197Z,25.23
2017-11-06T19:11:39.737Z,21.75
2017-11-06T19:14:07.317Z,21.90
2017-11-06T19:16:34.865Z,21.70
2017-11-06T19:19:02.450Z,21.17
2017-11-06T19:21:30.008Z,22.03
2017-11-06T19:23:57.600Z,26.77
2017-11-06T19:26:25.145Z,25.48
2017-11-06T19:28:53.461Z,23.27
2017-11-06T19:31:21.046Z,21.87
2017-11-06T19:33:48.647Z,29.77
2017-11-06T19:36:16.962Z,23.55
2017-11-06T19:38:44.508Z,25.80
2017-11-06T19:41:12.104Z,32.60
2017-11-06T19:43:39.646Z,27.65
2017-11-06T19:46:09.017Z,28.00
2017-11-06T19:48:36.609Z,30.62
2017-11-06T19:51:04.153Z,39.70
2017-11-06T19:53:31.745Z,22.48
2017-11-06T19:55:59.340Z,20.50
2017-11-06T19:58:27.649Z,24.52
2017-11-06T20:00:55.218Z,26.75
2017-11-06T20:03:22.806Z,23.83
2017-11-06T20:05:50.353Z,29.08
2017-11-06T20:08:17.937Z,31.25
2017-11-06T20:10:45.570Z,22.02
2017-11-06T20:13:13.161Z,25.67
2017-11-06T20:15:40.705Z,23.45
2017-11-06T20:18:08.304Z,32.08
2017-11-06T20:20:35.888Z,23.65
2017-11-06T20:23:03.433Z,27.42
2017-11-06T20:25:31.780Z,25.08
2017-11-06T20:27:59.331Z,23.70
2017-11-06T20:30:26.920Z,24.75
2017-11-06T20:32:55.230Z,28.25
2017-11-06T20:35:22.800Z,25.60
2017-11-06T20:37:50.381Z,25.65
2017-11-06T20:40:17.925Z,30.58
2017-11-06T20:42:45.504Z,22.45
2017-11-06T20:45:13.049Z,28.55
2017-11-06T20:47:40.635Z,27.25
2017-11-06T20:50:08.188Z,30.20
2017-11-06T20:52:35.776Z,31.73
2017-11-06T20:55:04.084Z,33.13
2017-11-06T20:57:31.671Z,33.13
2017-11-06T20:59:59.218Z,32.85
2017-11-06T21:02:26.813Z,33.53
2017-11-06T21:04:54.357Z,34.05
2017-11-06T21:07:21.907Z,35.38
2017-11-06T21:09:49.513Z,29.35
2017-11-06T21:12:17.838Z,30.40
2017-11-06T21:14:45.429Z,38.67
2017-11-06T21:17:12.973Z,29.20
2017-11-06T21:19:40.536Z,28.87
2017-11-06T21:22:08.126Z,30.95
2017-11-06T21:24:35.670Z,32.72
2017-11-06T21:27:03.303Z,28.17
2017-11-06T21:29:36.550Z,28.43
2017-11-06T21:32:04.857Z,31.12
2017-11-06T21:34:32.436Z,33.53
2017-11-06T21:36:59.980Z,31.37
2017-11-06T21:39:27.653Z,36.35
2017-11-06T21:41:55.226Z,33.28
2017-11-06T21:44:22.801Z,32.75
2017-11-06T21:46:50.393Z,31.73
2017-11-06T21:49:18.706Z,31.55
2017-11-06T21:51:46.288Z,34.85
2017-11-06T21:54:13.835Z,31.08
2017-11-06T21:56:41.416Z,33.70
2017-11-06T21:59:08.964Z,32.20
2017-11-06T22:01:36.544Z,35.42
2017-11-06T22:04:04.089Z,37.67
2017-11-06T22:06:31.674Z,34.45
2017-11-06T22:08:59.985Z,31.58
2017-11-06T22:11:27.556Z,34.08
2017-11-06T22:13:55.097Z,31.17
2017-11-06T22:16:22.690Z,30.00
2017-11-06T22:18:50.239Z,35.55
2017-11-06T22:21:17.781Z,38.28
2017-11-06T22:23:45.357Z,35.75
2017-11-06T22:26:12.952Z,43.83
2017-11-06T22:28:40.502Z,36.55
2017-11-06T22:31:08.050Z,41.92
2017-11-06T22:33:35.630Z,33.75
2017-11-06T22:36:03.175Z,35.45
2017-11-06T22:38:30.756Z,36.40
2017-11-06T22:40:58.337Z,35.95
2017-11-06T22:43:26.653Z,36.22
2017-11-06T22:45:54.327Z,38.33
2017-11-06T22:48:21.910Z,37.50
2017-11-06T22:50:49.501Z,39.38
2017-11-06T22:53:17.812Z,41.53
2017-11-06T22:55:45.393Z,35.35
2017-11-06T22:58:12.983Z,44.55
2017-11-06T23:00:40.524Z,39.17
2017-11-06T23:03:08.116Z,35.58
2017-11-06T23:05:36.425Z,41.10
2017-11-06T23:08:03.986Z,38.88
2017-11-06T23:10:31.565Z,36.35
2017-11-06T23:12:59.108Z,37.13
2017-11-06T23:15:26.685Z,39.08
2017-11-06T23:17:54.259Z,47.60
2017-11-06T23:20:21.858Z,36.53
2017-11-06T23:22:50.169Z,35.83
2017-11-06T23:25:17.718Z,36.47
2017-11-06T23:27:45.307Z,34.53
2017-11-06T23:30:12.844Z,37.30
2017-11-06T23:32:40.443Z,35.95
2017-11-06T23:35:07.985Z,31.37
2017-11-06T23:37:35.527Z,34.30
2017-11-06T23:40:03.116Z,39.42
2017-11-06T23:42:30.660Z,34.45
2017-11-06T23:44:58.262Z,43.28
2017-11-06T23:47:25.808Z,42.17
2017-11-06T23:49:53.361Z,37.47
2017-11-06T23:52:20.998Z,41.45
2017-11-06T23:54:48.536Z,41.13
2017-11-06T23:57:16.222Z,36.65
2017-11-06T23:59:43.764Z,49.63
